createdAt,value
2023-02-19T00:01:47.458Z,2.37
2023-02-19T00:04:21.078Z,2.27
2023-02-19T00:06:48.755Z,2.03
2023-02-19T00:09:18.379Z,2.33
2023-02-19T00:11:45.645Z,2.27
2023-02-19T00:14:18.332Z,2.33
2023-02-19T00:16:44.833Z,2.17
2023-02-19T00:19:17.930Z,2.17
2023-02-19T00:21:44.386Z,2.00
2023-02-19T00:24:13.143Z,2.03
2023-02-19T00:26:41.951Z,2.13
2023-02-19T00:29:19.686Z,2.03
2023-02-19T00:31:47.037Z,1.83
2023-02-19T00:34:14.518Z,1.80
2023-02-19T00:36:42.338Z,1.93
2023-02-19T00:39:14.537Z,1.90
2023-02-19T00:41:40.989Z,1.93
2023-02-19T00:44:10.064Z,1.77
2023-02-19T00:46:46.574Z,2.43
2023-02-19T00:49:22.640Z,2.10
2023-02-19T00:51:51.688Z,2.10
2023-02-19T00:54:19.163Z,1.70
2023-02-19T00:56:46.136Z,1.50
2023-02-19T00:59:12.691Z,1.63
2023-02-19T01:01:39.625Z,3.20
2023-02-19T01:04:07.065Z,1.97
2023-02-19T01:06:34.541Z,1.70
2023-02-19T01:09:01.253Z,1.40
2023-02-19T01:11:27.747Z,1.73
2023-02-19T01:13:58.204Z,1.37
2023-02-19T01:16:24.835Z,1.60
2023-02-19T01:18:51.767Z,1.53
2023-02-19T01:21:23.051Z,1.53
2023-02-19T01:23:51.265Z,1.43
2023-02-19T01:26:24.789Z,1.50
2023-02-19T01:28:52.080Z,1.80
2023-02-19T01:31:22.215Z,1.70
2023-02-19T01:33:52.587Z,1.20
2023-02-19T01:36:19.347Z,1.20
2023-02-19T01:38:46.566Z,1.50
2023-02-19T01:41:18.047Z,1.47
2023-02-19T01:45:33.820Z,1.50
2023-02-19T01:48:29.043Z,1.33
2023-02-19T01:51:07.621Z,1.30
2023-02-19T01:53:42.929Z,1.10
2023-02-19T01:56:12.742Z,1.20
2023-02-19T01:58:40.546Z,1.10
2023-02-19T02:01:09.239Z,1.37
2023-02-19T02:03:39.759Z,1.00
2023-02-19T02:06:23.531Z,1.27
2023-02-19T02:09:15.594Z,1.37
2023-02-19T02:11:51.584Z,1.17
2023-02-19T02:14:23.441Z,1.40
2023-02-19T02:17:28.689Z,1.20
2023-02-19T02:21:58.907Z,1.17
2023-02-19T02:26:49.391Z,1.17
2023-02-19T02:30:03.250Z,1.30
2023-02-19T02:32:41.810Z,1.40
2023-02-19T02:35:13.092Z,1.30
2023-02-19T02:37:43.366Z,1.10
2023-02-19T02:40:11.679Z,1.50
2023-02-19T02:42:39.805Z,1.13
2023-02-19T02:45:35.674Z,1.30
2023-02-19T02:49:08.425Z,1.30
2023-02-19T02:51:51.960Z,1.17
2023-02-19T02:54:44.167Z,1.53
2023-02-19T02:57:14.102Z,1.80
2023-02-19T02:59:43.063Z,1.60
2023-02-19T03:02:22.620Z,1.10
2023-02-19T03:05:40.326Z,1.20
2023-02-19T03:08:19.139Z,1.07
2023-02-19T03:13:04.199Z,1.20
2023-02-19T03:16:02.419Z,1.10
2023-02-19T03:18:51.398Z,1.27
2023-02-19T03:21:22.605Z,1.30
2023-02-19T03:24:08.603Z,1.50
2023-02-19T03:26:40.328Z,1.77
2023-02-19T03:29:25.037Z,1.40
2023-02-19T03:32:14.398Z,1.60
2023-02-19T03:34:53.471Z,1.30
2023-02-19T03:37:40.877Z,1.50
2023-02-19T03:40:08.401Z,1.40
2023-02-19T03:43:13.151Z,1.50
2023-02-19T03:49:03.592Z,1.53
2023-02-19T03:51:53.120Z,1.70
2023-02-19T03:54:37.651Z,1.97
2023-02-19T03:57:18.510Z,1.80
2023-02-19T04:00:08.562Z,1.77
2023-02-19T04:03:15.369Z,1.60
2023-02-19T04:05:52.763Z,1.57
2023-02-19T04:08:23.704Z,1.60
2023-02-19T04:10:52.631Z,2.10
2023-02-19T04:13:35.585Z,2.00
2023-02-19T04:16:11.165Z,1.80
2023-02-19T04:18:43.427Z,1.60
2023-02-19T04:21:11.229Z,1.53
2023-02-19T04:23:43.810Z,2.13
2023-02-19T04:26:12.996Z,2.33
2023-02-19T04:28:42.215Z,2.77
2023-02-19T04:31:09.053Z,2.67
2023-02-19T04:33:36.580Z,5.50
2023-02-19T04:36:03.384Z,4.97
2023-02-19T04:38:29.840Z,4.57
2023-02-19T04:40:56.722Z,4.30
2023-02-19T04:43:23.199Z,3.33
2023-02-19T04:45:49.736Z,3.27
2023-02-19T04:48:16.219Z,3.40
2023-02-19T04:50:44.698Z,2.80
2023-02-19T04:53:11.201Z,2.77
2023-02-19T04:55:38.843Z,2.10
2023-02-19T04:58:05.400Z,1.80
2023-02-19T05:00:33.204Z,2.50
2023-02-19T05:03:00.643Z,3.00
2023-02-19T05:05:27.333Z,2.53
2023-02-19T05:07:53.787Z,2.63
2023-02-19T05:10:20.468Z,2.87
2023-02-19T05:12:46.988Z,3.17
2023-02-19T05:15:13.452Z,3.20
2023-02-19T05:17:39.979Z,3.17
2023-02-19T05:20:07.538Z,2.73
2023-02-19T05:22:35.195Z,3.17
2023-02-19T05:25:01.661Z,2.90
2023-02-19T05:27:30.955Z,2.73
2023-02-19T05:29:57.460Z,2.43
2023-02-19T05:32:23.953Z,3.33
2023-02-19T05:34:51.067Z,3.33
2023-02-19T05:37:17.545Z,2.90
2023-02-19T05:39:44.015Z,3.13
2023-02-19T05:42:14.230Z,3.03
2023-02-19T05:44:41.519Z,3.40
2023-02-19T05:47:08.004Z,3.20
2023-02-19T05:49:34.480Z,2.90
2023-02-19T05:52:00.941Z,3.50
2023-02-19T05:54:30.944Z,3.17
2023-02-19T05:56:57.824Z,2.90
2023-02-19T05:59:26.666Z,2.80
2023-02-19T06:01:55.097Z,3.40
2023-02-19T06:04:22.624Z,3.07
2023-02-19T06:06:49.132Z,2.77
2023-02-19T06:09:15.933Z,3.00
2023-02-19T06:11:42.824Z,4.20
2023-02-19T06:14:13.261Z,3.50
2023-02-19T06:16:40.274Z,3.33
2023-02-19T06:19:09.441Z,2.50
2023-02-19T06:21:36.024Z,2.80
2023-02-19T06:24:07.154Z,2.87
2023-02-19T06:26:33.992Z,2.70
2023-02-19T06:29:00.479Z,2.83
2023-02-19T06:31:27.028Z,3.00
2023-02-19T06:33:54.322Z,2.93
2023-02-19T06:36:22.356Z,3.33
2023-02-19T06:38:49.136Z,3.37
2023-02-19T06:41:16.007Z,4.37
2023-02-19T06:43:42.683Z,4.03
2023-02-19T06:46:12.150Z,3.03
2023-02-19T06:48:40.533Z,3.20
2023-02-19T06:51:07.310Z,2.93
2023-02-19T06:53:33.790Z,3.27
2023-02-19T06:56:07.680Z,3.20
2023-02-19T06:58:34.695Z,2.97
2023-02-19T07:01:01.399Z,3.20
2023-02-19T07:03:27.991Z,4.03
2023-02-19T07:05:54.519Z,3.87
2023-02-19T07:08:21.257Z,4.10
2023-02-19T07:10:58.498Z,4.73
2023-02-19T07:13:26.590Z,5.33
2023-02-19T07:16:00.334Z,6.20
2023-02-19T07:18:27.522Z,4.23
2023-02-19T07:20:54.072Z,3.57
2023-02-19T07:23:20.572Z,3.80
2023-02-19T07:25:47.065Z,4.80
2023-02-19T07:28:13.543Z,4.40
2023-02-19T07:30:40.031Z,4.20
2023-02-19T07:33:08.045Z,4.10
2023-02-19T07:35:36.600Z,3.80
2023-02-19T07:38:03.225Z,4.17
2023-02-19T07:40:29.701Z,4.50
2023-02-19T07:42:58.756Z,5.72
2023-02-19T07:45:25.252Z,5.47
2023-02-19T07:47:51.745Z,6.07
2023-02-19T07:50:18.354Z,4.77
2023-02-19T07:52:44.811Z,4.00
2023-02-19T07:55:11.325Z,3.80
2023-02-19T07:57:37.848Z,3.87
2023-02-19T08:00:05.054Z,3.93
2023-02-19T08:02:50.092Z,4.03
2023-02-19T08:05:16.683Z,5.07
2023-02-19T08:07:43.188Z,7.60
2023-02-19T08:10:27.825Z,7.97
2023-02-19T08:13:17.951Z,8.17
2023-02-19T08:15:53.086Z,10.23
2023-02-19T08:18:23.284Z,9.23
2023-02-19T08:20:50.464Z,8.23
2023-02-19T08:23:19.868Z,7.30
2023-02-19T08:25:50.167Z,7.67
2023-02-19T08:28:18.080Z,6.87
2023-02-19T08:30:46.947Z,8.33
2023-02-19T08:33:17.533Z,7.50
2023-02-19T08:35:44.510Z,6.93
2023-02-19T08:38:12.585Z,5.47
2023-02-19T08:40:40.412Z,6.50
2023-02-19T08:43:10.838Z,7.07
2023-02-19T08:45:39.406Z,7.27
2023-02-19T08:48:06.589Z,7.20
2023-02-19T08:50:33.790Z,7.87
2023-02-19T08:53:01.446Z,7.63
2023-02-19T08:55:28.459Z,7.73
2023-02-19T08:57:55.169Z,8.23
2023-02-19T09:00:22.132Z,7.90
2023-02-19T09:02:49.515Z,8.10
2023-02-19T09:05:17.074Z,7.67
2023-02-19T09:07:43.949Z,7.70
2023-02-19T09:10:13.085Z,8.67
2023-02-19T09:12:39.895Z,7.97
2023-02-19T09:15:07.290Z,7.63
2023-02-19T09:17:33.798Z,6.33
2023-02-19T09:20:00.279Z,7.33
2023-02-19T09:22:26.793Z,7.43
2023-02-19T09:24:53.305Z,6.87
2023-02-19T09:27:20.356Z,6.47
2023-02-19T09:29:46.912Z,6.40
2023-02-19T09:32:14.046Z,5.50
2023-02-19T09:34:40.962Z,6.50
2023-02-19T09:37:08.182Z,5.17
2023-02-19T09:39:35.004Z,6.30
2023-02-19T09:42:19.844Z,6.07
2023-02-19T09:44:54.006Z,5.27
2023-02-19T09:47:28.110Z,5.00
2023-02-19T09:50:00.469Z,5.67
2023-02-19T09:52:42.166Z,5.83
2023-02-19T09:55:39.128Z,2.63
2023-02-19T09:58:32.644Z,5.23
2023-02-19T10:01:03.875Z,4.60
2023-02-19T10:03:42.550Z,4.00
2023-02-19T10:06:28.962Z,3.50
2023-02-19T10:09:20.354Z,2.97
2023-02-19T10:11:49.245Z,0.70
2023-02-19T10:15:28.699Z,0.50
2023-02-19T10:17:55.600Z,0.30
2023-02-19T10:20:27.186Z,0.50
2023-02-19T10:23:07.371Z,0.50
2023-02-19T10:25:36.079Z,0.30
2023-02-19T10:28:03.862Z,0.32
2023-02-19T10:30:35.490Z,0.30
2023-02-19T10:33:12.557Z,0.30
2023-02-19T10:36:24.033Z,0.77
2023-02-19T10:38:50.928Z,0.65
2023-02-19T10:41:21.066Z,0.70
2023-02-19T10:44:28.508Z,0.60
2023-02-19T10:46:59.530Z,0.50
2023-02-19T10:49:39.033Z,0.57
2023-02-19T10:52:29.646Z,0.35
2023-02-19T10:55:35.537Z,0.37
2023-02-19T10:58:26.313Z,0.52
2023-02-19T11:01:20.909Z,0.43
2023-02-19T11:04:13.366Z,0.57
2023-02-19T11:06:40.220Z,0.35
2023-02-19T11:09:24.784Z,0.50
2023-02-19T11:11:53.985Z,0.30
2023-02-19T11:14:24.259Z,0.73
2023-02-19T11:16:55.843Z,0.50
2023-02-19T11:19:39.202Z,0.50
2023-02-19T11:23:58.558Z,0.50
2023-02-19T11:26:29.365Z,0.28
2023-02-19T11:28:59.124Z,0.40
2023-02-19T11:31:34.567Z,0.40
2023-02-19T11:34:28.589Z,0.70
2023-02-19T11:37:20.261Z,0.40
2023-02-19T11:39:50.424Z,0.40
2023-02-19T11:45:05.250Z,0.50
2023-02-19T11:50:30.968Z,0.40
2023-02-19T11:53:32.892Z,0.30
2023-02-19T11:56:24.774Z,0.20
2023-02-19T12:05:29.027Z,0.40
2023-02-19T12:08:31.262Z,0.32
2023-02-19T12:13:56.000Z,0.20
2023-02-19T12:21:32.622Z,0.20
2023-02-19T12:26:07.546Z,0.15
2023-02-19T12:30:35.604Z,0.10
2023-02-19T12:34:13.028Z,0.20
2023-02-19T12:40:25.315Z,0.20
2023-02-19T12:43:20.612Z,0.20
2023-02-19T12:46:05.642Z,0.20
2023-02-19T12:48:59.422Z,0.15
2023-02-19T12:51:54.390Z,0.10
2023-02-19T12:54:39.116Z,0.10
2023-02-19T12:57:34.105Z,0.20
2023-02-19T13:00:42.250Z,0.20
2023-02-19T13:03:27.226Z,0.40
2023-02-19T13:07:56.260Z,0.17
2023-02-19T13:11:45.932Z,0.20
2023-02-19T13:14:34.178Z,0.17
2023-02-19T13:18:06.555Z,0.30
2023-02-19T13:20:39.696Z,0.20
2023-02-19T13:23:52.688Z,0.25
2023-02-19T13:28:24.864Z,0.20
2023-02-19T13:34:00.718Z,0.40
2023-02-19T13:36:30.005Z,0.20
2023-02-19T13:38:58.814Z,0.20
2023-02-19T13:41:49.951Z,0.20
2023-02-19T13:44:20.964Z,0.10
2023-02-19T13:46:49.948Z,0.20
2023-02-19T13:52:26.925Z,0.30
2023-02-19T13:55:50.657Z,0.20
2023-02-19T13:58:52.167Z,0.20
2023-02-19T14:01:19.476Z,0.30
2023-02-19T14:04:16.345Z,0.20
2023-02-19T14:07:32.388Z,0.32
2023-02-19T14:10:00.979Z,0.10
2023-02-19T14:12:37.430Z,0.30
2023-02-19T14:15:41.089Z,0.30
2023-02-19T14:18:45.496Z,0.20
2023-02-19T14:21:37.758Z,0.30
2023-02-19T14:24:11.127Z,0.20
2023-02-19T14:26:39.845Z,0.10
2023-02-19T14:29:09.792Z,0.32
2023-02-19T14:31:38.299Z,0.30
2023-02-19T14:34:22.107Z,0.20
2023-02-19T14:37:01.321Z,0.30
2023-02-19T14:39:37.118Z,0.10
2023-02-19T14:42:26.864Z,0.20
2023-02-19T14:44:59.888Z,0.20
2023-02-19T14:47:32.491Z,0.20
2023-02-19T14:50:07.533Z,0.20
2023-02-19T14:52:49.011Z,0.20
2023-02-19T14:55:39.573Z,0.43
2023-02-19T14:58:14.668Z,0.20
2023-02-19T15:00:42.137Z,0.30
2023-02-19T15:03:37.898Z,0.32
2023-02-19T15:06:16.779Z,0.40
2023-02-19T15:08:59.545Z,0.60
2023-02-19T15:11:30.379Z,0.20
2023-02-19T15:14:02.032Z,0.22
2023-02-19T15:16:31.892Z,0.30
2023-02-19T15:18:59.972Z,0.30
2023-02-19T15:21:39.324Z,0.30
2023-02-19T15:24:06.887Z,0.60
2023-02-19T15:26:40.629Z,0.50
2023-02-19T15:29:15.401Z,0.37
2023-02-19T15:31:57.765Z,0.40
2023-02-19T15:34:30.352Z,0.43
2023-02-19T15:37:08.410Z,0.50
2023-02-19T15:39:44.097Z,0.40
2023-02-19T15:42:23.496Z,0.40
2023-02-19T15:45:07.793Z,0.30
2023-02-19T15:47:42.492Z,0.40
2023-02-19T15:50:29.973Z,0.50
2023-02-19T15:53:18.183Z,0.25
2023-02-19T15:56:18.596Z,0.30
2023-02-19T15:59:04.036Z,0.40
2023-02-19T16:01:38.255Z,0.40
2023-02-19T16:04:18.225Z,0.60
2023-02-19T16:07:00.912Z,0.30
2023-02-19T16:09:37.056Z,0.50
2023-02-19T16:12:23.894Z,0.30
2023-02-19T16:14:50.402Z,0.30
2023-02-19T16:17:27.090Z,0.60
2023-02-19T16:20:02.638Z,0.50
2023-02-19T16:22:41.406Z,0.53
2023-02-19T16:25:24.211Z,0.53
2023-02-19T16:27:50.826Z,0.20
2023-02-19T16:30:38.499Z,0.40
2023-02-19T16:35:36.998Z,0.30
2023-02-19T16:38:12.442Z,0.30
2023-02-19T16:41:11.430Z,0.37
2023-02-19T16:43:42.481Z,0.30
2023-02-19T16:46:12.122Z,0.40
2023-02-19T16:48:38.838Z,1.07
2023-02-19T16:51:07.416Z,0.60
2023-02-19T16:53:34.735Z,1.10
2023-02-19T16:56:01.206Z,0.47
2023-02-19T16:58:27.680Z,0.63
2023-02-19T17:00:54.155Z,0.20
2023-02-19T17:03:24.022Z,0.40
2023-02-19T17:05:51.536Z,0.40
2023-02-19T17:08:38.948Z,0.60
2023-02-19T17:11:11.294Z,0.30
2023-02-19T17:13:38.303Z,0.43
2023-02-19T17:16:04.860Z,0.70
2023-02-19T17:18:31.354Z,0.50
2023-02-19T17:21:14.571Z,0.30
2023-02-19T17:23:41.032Z,0.30
2023-02-19T17:26:18.755Z,0.40
2023-02-19T17:28:46.210Z,0.80
2023-02-19T17:31:14.057Z,1.50
2023-02-19T17:33:42.051Z,0.90
2023-02-19T17:36:17.392Z,0.80
2023-02-19T17:38:43.889Z,1.20
2023-02-19T17:41:10.758Z,2.53
2023-02-19T17:43:37.511Z,1.30
2023-02-19T17:46:04.278Z,2.60
2023-02-19T17:48:30.807Z,4.00
2023-02-19T17:50:57.389Z,3.10
2023-02-19T17:53:23.883Z,1.37
2023-02-19T17:55:50.379Z,3.67
2023-02-19T17:58:16.859Z,3.50
2023-02-19T18:00:43.334Z,1.77
2023-02-19T18:03:10.187Z,2.00
2023-02-19T18:05:36.638Z,1.10
2023-02-19T18:08:03.172Z,1.00
2023-02-19T18:10:29.771Z,1.07
2023-02-19T18:12:56.373Z,2.70
2023-02-19T18:15:28.193Z,1.27
2023-02-19T18:17:55.846Z,0.60
2023-02-19T18:20:25.879Z,0.70
2023-02-19T18:22:53.304Z,0.60
2023-02-19T18:25:20.643Z,3.53
2023-02-19T18:27:47.789Z,1.40
2023-02-19T18:30:18.154Z,0.70
2023-02-19T18:32:49.038Z,0.63
2023-02-19T18:35:17.820Z,0.60
2023-02-19T18:37:44.706Z,0.60
2023-02-19T18:40:12.095Z,0.50
2023-02-19T18:42:40.004Z,0.90
2023-02-19T18:45:07.200Z,0.50
2023-02-19T18:47:33.737Z,0.60
2023-02-19T18:50:00.451Z,0.63
2023-02-19T18:52:27.447Z,0.70
2023-02-19T18:54:56.637Z,0.50
2023-02-19T18:57:26.736Z,0.40
2023-02-19T18:59:53.526Z,0.50
2023-02-19T19:02:20.054Z,0.60
2023-02-19T19:04:53.360Z,0.60
2023-02-19T19:07:20.623Z,0.40
2023-02-19T19:09:47.473Z,0.60
2023-02-19T19:12:14.799Z,0.40
2023-02-19T19:14:41.310Z,0.53
2023-02-19T19:17:08.050Z,0.60
2023-02-19T19:19:34.555Z,0.70
2023-02-19T19:22:01.088Z,0.70
2023-02-19T19:24:27.582Z,0.60
2023-02-19T19:26:54.247Z,0.50
2023-02-19T19:29:22.235Z,0.50
2023-02-19T19:31:49.622Z,0.50
2023-02-19T19:34:17.527Z,0.50
2023-02-19T19:36:44.941Z,0.53
2023-02-19T19:39:12.333Z,0.70
2023-02-19T19:41:38.816Z,0.60
2023-02-19T19:44:06.935Z,0.63
2023-02-19T19:46:34.021Z,0.50
2023-02-19T19:49:00.774Z,0.60
2023-02-19T19:51:33.314Z,0.60
2023-02-19T19:54:01.176Z,0.60
2023-02-19T19:56:27.727Z,0.30
2023-02-19T19:58:54.223Z,0.30
2023-02-19T20:01:22.199Z,0.50
2023-02-19T20:03:50.302Z,0.40
2023-02-19T20:06:26.451Z,0.60
2023-02-19T20:08:53.228Z,0.40
2023-02-19T20:11:19.753Z,0.40
2023-02-19T20:13:46.288Z,0.40
2023-02-19T20:16:13.804Z,0.50
2023-02-19T20:18:40.957Z,0.60
2023-02-19T20:21:09.063Z,0.50
2023-02-19T20:23:37.500Z,0.50
2023-02-19T20:26:04.709Z,0.50
2023-02-19T20:28:31.712Z,0.50
2023-02-19T20:30:58.222Z,0.30
2023-02-19T20:33:24.746Z,0.40
2023-02-19T20:35:51.216Z,0.40
2023-02-19T20:38:17.708Z,0.57
2023-02-19T20:40:44.188Z,0.90
2023-02-19T20:43:10.647Z,0.90
2023-02-19T20:45:37.109Z,0.80
2023-02-19T20:48:03.697Z,0.73
2023-02-19T20:50:30.337Z,1.50
2023-02-19T20:52:56.814Z,1.30
2023-02-19T20:55:24.147Z,1.33
2023-02-19T20:57:50.638Z,1.50
2023-02-19T21:00:18.262Z,1.30
2023-02-19T21:02:44.897Z,1.80
2023-02-19T21:05:11.416Z,1.23
2023-02-19T21:07:37.913Z,1.30
2023-02-19T21:10:05.021Z,1.03
2023-02-19T21:12:32.803Z,1.10
2023-02-19T21:14:59.451Z,0.90
2023-02-19T21:17:25.936Z,1.00
2023-02-19T21:19:52.535Z,1.23
2023-02-19T21:22:18.989Z,1.30
2023-02-19T21:24:48.758Z,1.20
2023-02-19T21:27:15.238Z,0.30
2023-02-19T21:29:41.699Z,0.90
2023-02-19T21:32:08.298Z,0.67
2023-02-19T21:34:34.799Z,1.47
2023-02-19T21:37:01.255Z,1.60
2023-02-19T21:39:28.062Z,1.80
2023-02-19T21:41:54.649Z,1.20
2023-02-19T21:44:21.192Z,2.40
2023-02-19T21:46:48.255Z,2.17
2023-02-19T21:49:14.744Z,2.50
2023-02-19T21:51:44.008Z,1.83
2023-02-19T21:54:23.731Z,2.90
2023-02-19T21:56:52.014Z,1.60
2023-02-19T21:59:20.239Z,1.20
2023-02-19T22:01:47.022Z,3.63
2023-02-19T22:04:18.398Z,2.57
2023-02-19T22:06:44.872Z,2.90
2023-02-19T22:09:13.426Z,1.40
2023-02-19T22:11:40.124Z,0.93
2023-02-19T22:14:07.370Z,1.60
2023-02-19T22:16:33.845Z,1.70
2023-02-19T22:19:00.612Z,1.30
2023-02-19T22:21:34.040Z,1.00
2023-02-19T22:24:02.666Z,1.17
2023-02-19T22:26:35.594Z,0.90
2023-02-19T22:29:07.578Z,0.57
2023-02-19T22:31:34.524Z,0.60
2023-02-19T22:34:01.231Z,0.50
2023-02-19T22:36:30.674Z,0.60
2023-02-19T22:38:57.308Z,0.70
2023-02-19T22:41:23.768Z,0.70
2023-02-19T22:43:52.999Z,1.80
2023-02-19T22:46:26.372Z,1.27
2023-02-19T22:48:52.860Z,1.50
2023-02-19T22:51:23.347Z,1.57
2023-02-19T22:53:55.644Z,1.27
2023-02-19T22:56:27.928Z,0.93
2023-02-19T22:58:56.379Z,0.70
2023-02-19T23:01:24.191Z,0.80
2023-02-19T23:04:02.292Z,0.90
2023-02-19T23:06:32.324Z,1.87
2023-02-19T23:09:05.844Z,2.40
2023-02-19T23:11:38.173Z,2.00
2023-02-19T23:14:06.805Z,1.23
2023-02-19T23:16:35.140Z,0.77
2023-02-19T23:19:08.745Z,1.33
2023-02-19T23:21:35.194Z,1.53
2023-02-19T23:24:01.864Z,1.53
2023-02-19T23:26:28.331Z,1.33
2023-02-19T23:28:54.806Z,1.10
2023-02-19T23:31:21.834Z,2.27
2023-02-19T23:33:48.427Z,2.10
2023-02-19T23:36:15.334Z,1.83
2023-02-19T23:38:44.874Z,2.40
2023-02-19T23:41:14.467Z,2.50
2023-02-19T23:43:40.976Z,2.03
2023-02-19T23:46:08.359Z,2.17
2023-02-19T23:48:35.177Z,1.70
2023-02-19T23:51:01.671Z,1.50
2023-02-19T23:53:28.145Z,1.37
2023-02-19T23:55:54.687Z,2.00
2023-02-19T23:58:21.181Z,2.20
